Time;durP1;ratioP1;P1;durP2;ratioP2;P2;SDS_P1;SDS_P2;PMS_P1;PMS_P2;Temp;Humidity;BMP_temperature;BMP_pressure;BME280_temperature;BME280_humidity;BME280_pressure;Samples;Min_cycle;Max_cycle;Signal;HPM_P1;HPM_P2
2023/04/08 00:01:49;;;;;;;66.50;48.85;;;13.80;72.30;;;;;;4977433;28;89199;-52
2023/04/08 00:04:14;;;;;;;66.38;48.97;;;13.80;72.30;;;;;;4977329;28;90020;-56
2023/04/08 00:06:40;;;;;;;68.15;49.10;;;13.80;72.20;;;;;;4977624;28;89296;-55
2023/04/08 00:09:06;;;;;;;68.38;49.35;;;13.80;72.20;;;;;;4980118;28;88884;-56
2023/04/08 00:11:31;;;;;;;66.32;48.75;;;13.80;72.10;;;;;;4981694;28;89591;-56
2023/04/08 00:13:57;;;;;;;67.13;49.03;;;13.80;72.20;;;;;;4978402;28;89496;-54
2023/04/08 00:16:23;;;;;;;68.05;49.47;;;13.80;72.30;;;;;;4978552;28;88738;-56
2023/04/08 00:18:48;;;;;;;66.72;48.97;;;13.80;72.10;;;;;;4974965;28;89528;-56
2023/04/08 00:21:16;;;;;;;69.07;49.05;;;13.80;72.20;;;;;;4975540;28;90541;-56
2023/04/08 00:23:42;;;;;;;66.88;48.60;;;13.80;72.10;;;;;;4976711;28;90008;-55
2023/04/08 00:26:08;;;;;;;67.35;49.25;;;13.80;72.00;;;;;;4978924;28;89383;-53
2023/04/08 00:28:34;;;;;;;67.47;49.15;;;13.80;72.80;;;;;;4980723;28;89209;-54
2023/04/08 00:31:00;;;;;;;67.20;49.00;;;13.80;72.00;;;;;;4974385;28;89268;-55
2023/04/08 00:33:25;;;;;;;66.60;48.80;;;13.80;72.00;;;;;;4977356;28;89433;-55
2023/04/08 00:35:51;;;;;;;67.07;48.70;;;13.80;71.90;;;;;;4974537;28;89289;-53
2023/04/08 00:38:17;;;;;;;67.70;49.28;;;13.80;71.80;;;;;;4979422;28;89696;-56
2023/04/08 00:40:42;;;;;;;67.43;49.15;;;13.80;72.00;;;;;;4980671;28;89069;-55
2023/04/08 00:43:08;;;;;;;66.35;48.65;;;13.80;71.90;;;;;;4980220;28;89375;-54
2023/04/08 00:45:34;;;;;;;66.68;49.00;;;13.70;72.20;;;;;;4976934;28;90281;-54
2023/04/08 00:48:01;;;;;;;66.75;48.85;;;13.80;72.10;;;;;;4980721;28;89238;-56
2023/04/08 00:50:27;;;;;;;67.28;49.35;;;13.80;72.00;;;;;;4979338;28;89126;-54
2023/04/08 00:52:53;;;;;;;67.80;49.83;;;13.70;71.80;;;;;;4974085;28;94247;-55
2023/04/08 00:55:19;;;;;;;67.68;49.63;;;13.70;71.90;;;;;;4968055;28;90140;-54
2023/04/08 00:57:46;;;;;;;67.38;49.10;;;13.80;72.00;;;;;;4978601;28;90078;-56
2023/04/08 01:00:12;;;;;;;67.50;49.15;;;13.80;71.80;;;;;;4974740;28;90086;-52
2023/04/08 01:03:24;;;;;;;66.97;49.53;;;13.80;71.80;;;;;;4974909;28;88983;-53
2023/04/08 01:06:04;;;;;;;67.78;49.45;;;13.80;71.70;;;;;;4969631;28;89602;-56
2023/04/08 01:08:31;;;;;;;66.65;48.97;;;13.80;71.90;;;;;;4982011;28;89256;-53
2023/04/08 01:11:01;;;;;;;67.38;49.42;;;13.80;71.90;;;;;;4985199;28;92068;-54
2023/04/08 01:13:32;;;;;;;66.80;49.47;;;13.70;71.80;;;;;;4983478;28;92268;-55
2023/04/08 01:15:58;;;;;;;66.93;49.47;;;13.70;71.80;;;;;;4985076;28;88568;-55
2023/04/08 01:18:25;;;;;;;66.38;49.03;;;13.70;71.70;;;;;;4981157;28;89408;-55
2023/04/08 01:20:52;;;;;;;66.70;48.85;;;13.70;71.70;;;;;;4981341;28;90313;-55
2023/04/08 01:24:01;;;;;;;67.93;49.47;;;13.70;71.70;;;;;;4984315;28;89198;-56
2023/04/08 01:26:27;;;;;;;68.65;49.42;;;13.70;71.80;;;;;;4964770;28;89242;-53
2023/04/08 01:28:57;;;;;;;68.10;49.33;;;13.70;71.90;;;;;;4987817;28;88208;-56
2023/04/08 01:31:24;;;;;;;66.85;48.83;;;13.70;71.70;;;;;;4979748;28;89192;-56
2023/04/08 01:33:51;;;;;;;67.22;49.22;;;13.70;71.80;;;;;;4984977;28;88701;-54
2023/04/08 01:36:19;;;;;;;67.25;49.45;;;13.70;71.80;;;;;;4976610;28;90167;-55
2023/04/08 01:38:47;;;;;;;67.20;49.40;;;13.70;71.80;;;;;;4971605;28;89761;-56
2023/04/08 01:41:13;;;;;;;66.45;49.10;;;13.70;71.70;;;;;;4986325;28;89915;-56
2023/04/08 01:43:41;;;;;;;66.85;49.30;;;13.70;71.80;;;;;;4983635;28;89340;-56
2023/04/08 01:46:09;;;;;;;67.00;49.08;;;13.70;71.70;;;;;;4981999;28;90511;-54
2023/04/08 01:48:35;;;;;;;66.90;49.15;;;13.70;71.80;;;;;;4985800;28;89364;-56
2023/04/08 01:51:02;;;;;;;67.45;49.45;;;13.70;71.70;;;;;;4981693;28;90080;-53
2023/04/08 01:53:28;;;;;;;67.30;49.30;;;13.70;71.70;;;;;;4984001;28;89475;-51
2023/04/08 01:56:05;;;;;;;67.05;49.30;;;13.70;71.70;;;;;;4984234;28;90361;-56
2023/04/08 01:58:38;;;;;;;66.53;48.92;;;13.70;71.70;;;;;;4981357;28;89141;-55
2023/04/08 02:01:09;;;;;;;66.38;49.20;;;13.70;71.60;;;;;;4980895;28;90594;-55
2023/04/08 02:03:35;;;;;;;;;;;13.70;71.50;;;;;;4980534;28;90044;-54
2023/04/08 02:06:01;;;;;;;65.93;49.08;;;13.60;71.50;;;;;;4982799;28;89318;-56
2023/04/08 02:08:26;;;;;;;67.47;49.22;;;13.70;71.50;;;;;;4983131;28;88882;-53
2023/04/08 02:10:52;;;;;;;68.93;48.92;;;13.70;71.50;;;;;;4981886;28;89482;-56
2023/04/08 02:13:18;;;;;;;66.40;49.10;;;13.60;71.50;;;;;;4983136;28;89595;-54
2023/04/08 02:15:50;;;;;;;66.25;48.95;;;13.60;71.50;;;;;;4984245;28;90212;-55
2023/04/08 02:18:25;;;;;;;67.10;48.78;;;13.70;71.50;;;;;;4983808;28;88445;-55
2023/04/08 02:21:07;;;;;;;66.93;49.30;;;13.60;71.40;;;;;;4977624;28;89896;-55
2023/04/08 02:23:36;;;;;;;66.85;49.15;;;13.60;71.50;;;;;;4981963;28;90250;-52
2023/04/08 02:26:06;;;;;;;68.07;49.50;;;13.60;71.50;;;;;;4984167;28;90675;-53
2023/04/08 02:28:34;;;;;;;67.00;49.50;;;13.60;71.40;;;;;;4984366;28;89343;-54
2023/04/08 02:31:01;;;;;;;68.18;49.22;;;13.60;71.40;;;;;;4981588;28;89806;-54
2023/04/08 02:33:28;;;;;;;66.75;49.40;;;13.60;71.50;;;;;;4981727;28;90473;-55
2023/04/08 02:35:54;;;;;;;66.90;49.17;;;13.60;71.40;;;;;;4981993;28;89435;-53
2023/04/08 02:38:22;;;;;;;67.53;49.53;;;13.60;71.50;;;;;;4987275;28;89060;-52
2023/04/08 02:40:50;;;;;;;67.32;49.42;;;13.60;71.40;;;;;;4980935;28;89885;-54
2023/04/08 02:43:16;;;;;;;67.50;49.30;;;13.60;71.60;;;;;;4979866;28;88591;-56
2023/04/08 02:45:42;;;;;;;66.55;49.13;;;13.60;71.50;;;;;;4983697;28;89395;-54
2023/04/08 02:48:08;;;;;;;67.15;49.63;;;13.60;71.40;;;;;;4980651;28;90379;-54
2023/04/08 02:50:33;;;;;;;66.85;49.03;;;13.60;71.40;;;;;;4978770;28;91362;-55
2023/04/08 02:52:59;;;;;;;67.10;49.40;;;13.60;71.40;;;;;;4983641;28;89712;-56
2023/04/08 02:55:25;;;;;;;67.10;49.35;;;13.60;71.40;;;;;;4978892;28;89053;-53
2023/04/08 02:57:50;;;;;;;66.97;49.45;;;13.60;71.50;;;;;;4983747;28;89116;-55
2023/04/08 03:00:16;;;;;;;66.63;49.65;;;13.60;71.30;;;;;;4980733;28;90767;-54
2023/04/08 03:02:42;;;;;;;67.13;49.88;;;13.60;72.10;;;;;;4983261;28;89482;-57
2023/04/08 03:05:08;;;;;;;67.35;49.72;;;13.60;72.40;;;;;;4985479;28;88852;-56
2023/04/08 03:07:34;;;;;;;67.90;49.67;;;13.60;72.60;;;;;;4981138;28;88746;-57
2023/04/08 03:10:02;;;;;;;66.63;49.83;;;13.60;72.80;;;;;;4964467;28;91246;-55
2023/04/08 03:12:28;;;;;;;70.47;49.95;;;13.60;72.80;;;;;;4981146;28;89138;-55
2023/04/08 03:14:54;;;;;;;67.07;49.47;;;13.60;73.00;;;;;;4983081;28;90329;-53
2023/04/08 03:17:20;;;;;;;69.47;50.05;;;13.60;73.00;;;;;;4986010;28;89778;-54
2023/04/08 03:19:46;;;;;;;68.15;49.55;;;13.60;72.90;;;;;;4981102;28;90394;-56
2023/04/08 03:22:12;;;;;;;66.70;49.35;;;13.60;72.90;;;;;;4982530;28;91274;-55
2023/04/08 03:24:38;;;;;;;69.90;50.13;;;13.60;72.80;;;;;;4979185;28;88854;-50
2023/04/08 03:27:05;;;;;;;67.35;50.15;;;13.60;72.60;;;;;;4980950;28;88996;-50
2023/04/08 03:29:30;;;;;;;69.13;50.00;;;13.70;72.40;;;;;;4984701;28;88883;-48
2023/04/08 03:31:59;;;;;;;69.38;50.25;;;13.70;72.30;;;;;;4980424;28;89170;-51
2023/04/08 03:34:25;;;;;;;69.82;50.08;;;13.70;72.30;;;;;;4983679;28;88911;-52
2023/04/08 03:36:50;;;;;;;67.10;49.92;;;13.60;72.40;;;;;;4964099;28;89140;-50
2023/04/08 03:39:16;;;;;;;68.90;50.08;;;13.70;72.50;;;;;;4961227;28;91600;-51
2023/04/08 03:41:42;;;;;;;67.03;49.63;;;13.70;72.40;;;;;;4979141;28;91466;-49
2023/04/08 03:44:07;;;;;;;67.53;49.90;;;13.70;72.60;;;;;;4980968;28;89476;-51
2023/04/08 03:46:33;;;;;;;67.50;50.08;;;13.70;72.50;;;;;;4981607;28;89661;-52
2023/04/08 03:48:58;;;;;;;67.47;49.70;;;13.70;72.40;;;;;;4981791;28;89130;-53
2023/04/08 03:51:24;;;;;;;68.38;49.88;;;13.70;72.40;;;;;;4981748;28;89166;-51
2023/04/08 03:53:50;;;;;;;67.97;49.50;;;13.70;72.30;;;;;;4980841;28;94724;-50
2023/04/08 03:56:15;;;;;;;67.35;49.95;;;13.70;72.50;;;;;;4985121;28;88493;-49
2023/04/08 03:58:41;;;;;;;69.78;49.80;;;13.70;72.60;;;;;;4983421;28;88791;-53
2023/04/08 04:01:07;;;;;;;67.07;49.50;;;13.70;72.50;;;;;;4979964;28;89247;-54
2023/04/08 04:03:32;;;;;;;67.82;49.78;;;13.70;72.20;;;;;;4982233;28;89377;-53
2023/04/08 04:05:58;;;;;;;68.80;50.03;;;13.70;72.30;;;;;;4979121;28;89140;-50
2023/04/08 04:08:24;;;;;;;68.43;50.28;;;13.70;72.20;;;;;;4986769;28;89056;-54
2023/04/08 04:10:50;;;;;;;66.90;49.70;;;13.70;72.50;;;;;;4980381;28;89424;-51
2023/04/08 04:13:16;;;;;;;66.30;49.30;;;13.70;72.50;;;;;;4974463;28;89199;-51
2023/04/08 04:15:41;;;;;;;67.32;49.88;;;13.70;72.20;;;;;;4977682;28;93788;-50
2023/04/08 04:18:07;;;;;;;67.28;49.72;;;13.70;73.10;;;;;;4978624;28;89610;-52
2023/04/08 04:20:33;;;;;;;68.32;49.97;;;13.70;72.20;;;;;;4982160;28;88580;-52
2023/04/08 04:22:58;;;;;;;66.50;49.42;;;13.70;73.00;;;;;;4979698;28;88482;-48
2023/04/08 04:25:24;;;;;;;67.50;50.08;;;13.70;72.30;;;;;;4978048;28;89443;-51
2023/04/08 04:27:50;;;;;;;67.25;49.83;;;13.70;72.20;;;;;;4981194;28;91287;-51
2023/04/08 04:30:16;;;;;;;67.35;50.17;;;13.70;72.30;;;;;;4978647;28;90470;-53
2023/04/08 04:32:42;;;;;;;68.78;50.05;;;13.70;72.30;;;;;;4982684;28;89250;-50
2023/04/08 04:35:09;;;;;;;68.45;49.85;;;13.70;72.20;;;;;;4976647;28;89712;-51
2023/04/08 04:37:35;;;;;;;68.68;49.60;;;13.70;72.30;;;;;;4980899;28;89388;-51
2023/04/08 04:40:01;;;;;;;67.00;49.42;;;13.70;72.20;;;;;;4959212;28;92404;-47
2023/04/08 04:42:27;;;;;;;67.28;49.85;;;13.70;72.10;;;;;;4978737;28;89173;-53
2023/04/08 04:44:53;;;;;;;67.25;49.58;;;13.70;72.00;;;;;;4979679;28;88204;-53
2023/04/08 04:47:19;;;;;;;66.57;49.40;;;13.70;72.00;;;;;;4981961;28;89713;-53
2023/04/08 04:49:45;;;;;;;66.97;49.70;;;13.70;72.10;;;;;;4963327;28;90246;-50
2023/04/08 04:52:10;;;;;;;67.35;49.65;;;13.70;72.10;;;;;;4976099;28;90825;-53
2023/04/08 04:54:36;;;;;;;67.00;49.45;;;13.70;71.80;;;;;;4975733;28;89686;-51
2023/04/08 04:57:02;;;;;;;68.20;49.42;;;13.70;72.00;;;;;;4961981;28;90995;-52
2023/04/08 04:59:27;;;;;;;67.97;49.53;;;13.70;72.00;;;;;;4983648;28;89090;-53
2023/04/08 05:01:56;;;;;;;67.30;49.88;;;13.70;71.90;;;;;;4978120;28;89220;-53
2023/04/08 05:04:22;;;;;;;67.30;49.30;;;13.70;71.80;;;;;;4950396;28;89434;-51
2023/04/08 05:06:48;;;;;;;67.15;49.28;;;13.70;71.70;;;;;;4980797;28;89056;-49
2023/04/08 05:09:14;;;;;;;68.32;49.72;;;13.70;71.80;;;;;;4979475;28;89127;-52
2023/04/08 05:11:40;;;;;;;67.72;49.65;;;13.70;71.80;;;;;;4979840;28;90602;-53
2023/04/08 05:14:06;;;;;;;65.97;49.42;;;13.70;71.90;;;;;;4979994;28;89138;-52
2023/04/08 05:16:32;;;;;;;66.43;49.42;;;13.70;71.70;;;;;;4976013;28;90953;-51
2023/04/08 05:18:57;;;;;;;67.72;49.55;;;13.70;71.90;;;;;;4976986;28;90613;-53
2023/04/08 05:21:23;;;;;;;66.43;50.00;;;13.60;71.80;;;;;;4976617;28;89461;-55
2023/04/08 05:23:51;;;;;;;66.47;49.15;;;13.70;71.80;;;;;;4982793;28;88799;-49
2023/04/08 05:26:18;;;;;;;66.82;49.50;;;13.70;71.80;;;;;;4979921;28;89381;-55
2023/04/08 05:28:44;;;;;;;67.82;50.13;;;13.70;71.70;;;;;;4981254;28;89643;-49
2023/04/08 05:31:10;;;;;;;66.85;49.63;;;13.70;71.70;;;;;;4979723;28;90017;-54
2023/04/08 05:33:36;;;;;;;67.32;50.03;;;13.70;71.60;;;;;;4980744;28;87794;-51
2023/04/08 05:36:02;;;;;;;68.85;49.78;;;13.60;71.70;;;;;;4980395;28;88934;-53
2023/04/08 05:38:27;;;;;;;67.93;49.60;;;13.70;71.80;;;;;;4978325;28;88875;-54
2023/04/08 05:40:53;;;;;;;67.93;50.17;;;13.70;71.80;;;;;;4962750;28;90116;-52
2023/04/08 05:43:19;;;;;;;67.60;49.67;;;13.60;71.80;;;;;;4979894;28;90812;-52
2023/04/08 05:45:45;;;;;;;67.93;49.70;;;13.60;71.50;;;;;;4979970;28;88897;-53
2023/04/08 05:48:10;;;;;;;67.85;49.53;;;13.70;71.70;;;;;;4976224;28;89261;-55
2023/04/08 05:50:36;;;;;;;67.97;49.78;;;13.60;71.70;;;;;;4980207;28;89397;-52
2023/04/08 05:53:01;;;;;;;70.13;50.15;;;13.60;71.50;;;;;;4979551;28;90342;-52
2023/04/08 05:55:27;;;;;;;67.38;49.90;;;13.70;71.40;;;;;;4972286;28;91222;-51
2023/04/08 05:57:53;;;;;;;67.10;49.47;;;13.60;71.70;;;;;;4978417;28;89334;-55
2023/04/08 06:00:20;;;;;;;66.80;49.38;;;13.60;71.50;;;;;;4984712;28;90093;-51
2023/04/08 06:02:45;;;;;;;68.07;49.67;;;13.70;71.70;;;;;;4985441;28;89265;-54
2023/04/08 06:05:11;;;;;;;67.03;49.75;;;13.70;71.60;;;;;;4981952;28;90339;-53
2023/04/08 06:07:37;;;;;;;66.72;49.42;;;13.60;71.50;;;;;;4982271;28;89745;-55
2023/04/08 06:10:04;;;;;;;67.20;49.60;;;13.60;71.40;;;;;;4982751;28;90924;-54
2023/04/08 06:12:29;;;;;;;67.43;49.88;;;13.60;71.50;;;;;;4982586;28;89020;-55
2023/04/08 06:14:55;;;;;;;67.63;50.10;;;13.70;71.50;;;;;;4984378;28;89039;-53
2023/04/08 06:17:21;;;;;;;67.35;49.72;;;13.60;71.70;;;;;;4983560;28;88801;-54
2023/04/08 06:19:46;;;;;;;67.90;50.13;;;13.60;71.90;;;;;;4983639;28;89144;-53
2023/04/08 06:22:12;;;;;;;67.93;50.42;;;13.70;71.70;;;;;;4985317;28;88043;-55
2023/04/08 06:24:38;;;;;;;69.30;50.00;;;13.70;71.60;;;;;;4975512;28;89358;-54
2023/04/08 06:27:03;;;;;;;67.78;49.80;;;13.70;71.50;;;;;;4987604;28;89167;-54
2023/04/08 06:29:30;;;;;;;68.05;50.40;;;13.70;71.60;;;;;;4988522;28;90747;-56
2023/04/08 06:31:55;;;;;;;69.70;50.15;;;13.70;71.60;;;;;;4967399;28;89586;-57
2023/04/08 06:34:21;;;;;;;68.40;50.25;;;13.70;71.70;;;;;;4980645;28;89272;-56
2023/04/08 06:36:47;;;;;;;68.15;50.42;;;13.70;71.60;;;;;;4983338;28;89016;-53
2023/04/08 06:39:15;;;;;;;67.00;49.65;;;13.70;71.60;;;;;;4964599;28;89102;-51
2023/04/08 06:41:41;;;;;;;69.18;50.53;;;13.70;71.90;;;;;;4982440;28;89507;-54
2023/04/08 06:44:07;;;;;;;71.05;49.53;;;13.80;71.70;;;;;;4979987;28;90404;-56
2023/04/08 06:46:32;;;;;;;70.65;50.65;;;13.80;71.70;;;;;;4983156;28;89422;-54
2023/04/08 06:48:58;;;;;;;69.13;50.47;;;13.90;71.30;;;;;;4979680;28;88806;-51
2023/04/08 06:51:24;;;;;;;68.25;50.10;;;14.00;71.90;;;;;;4982227;28;90101;-51
2023/04/08 06:53:50;;;;;;;68.68;50.22;;;14.00;71.00;;;;;;4980232;28;90126;-49
2023/04/08 06:56:16;;;;;;;68.53;50.03;;;14.00;71.00;;;;;;4980200;28;90622;-54
2023/04/08 06:58:41;;;;;;;68.32;50.05;;;14.00;71.00;;;;;;4976899;28;89525;-51
2023/04/08 07:01:07;;;;;;;68.38;50.15;;;14.00;71.10;;;;;;4982264;28;88691;-51
2023/04/08 07:03:33;;;;;;;68.07;49.85;;;14.00;70.90;;;;;;4979409;28;90374;-50
2023/04/08 07:05:58;;;;;;;68.68;49.95;;;14.00;71.10;;;;;;4984827;28;94965;-52
2023/04/08 07:08:24;;;;;;;68.32;49.83;;;14.00;71.00;;;;;;4977740;28;90530;-50
2023/04/08 07:10:51;;;;;;;68.60;49.72;;;14.00;70.90;;;;;;4985377;28;88520;-50
2023/04/08 07:13:17;;;;;;;68.95;50.03;;;14.10;71.00;;;;;;4982490;28;92567;-54
2023/04/08 07:15:42;;;;;;;70.50;50.10;;;14.10;70.70;;;;;;4976979;28;89388;-52
2023/04/08 07:18:08;;;;;;;69.63;49.63;;;14.10;70.90;;;;;;4983309;28;90132;-52
2023/04/08 07:20:37;;;;;;;68.30;49.45;;;14.10;70.60;;;;;;4975963;28;89856;-55
2023/04/08 07:23:02;;;;;;;69.18;49.83;;;14.10;70.60;;;;;;4980266;28;89149;-51
2023/04/08 07:25:28;;;;;;;68.95;49.75;;;14.10;70.60;;;;;;4966903;28;89013;-55
2023/04/08 07:27:55;;;;;;;68.85;50.05;;;14.10;70.60;;;;;;4982046;28;89223;-52
2023/04/08 07:30:21;;;;;;;68.88;49.78;;;14.10;70.40;;;;;;4983252;28;89330;-49
2023/04/08 07:32:46;;;;;;;69.20;50.08;;;14.20;70.20;;;;;;4982815;28;89579;-51
2023/04/08 07:35:12;;;;;;;71.32;49.83;;;14.20;70.10;;;;;;4977501;28;89237;-52
2023/04/08 07:37:38;;;;;;;70.40;50.42;;;14.20;69.90;;;;;;4980792;28;89118;-53
2023/04/08 07:40:04;;;;;;;69.90;50.28;;;14.30;69.80;;;;;;4979701;28;89992;-54
2023/04/08 07:42:30;;;;;;;70.35;50.53;;;14.30;69.70;;;;;;4984471;28;90234;-52
2023/04/08 07:44:55;;;;;;;70.35;50.30;;;14.40;69.60;;;;;;4980804;28;90907;-49
2023/04/08 07:47:21;;;;;;;69.55;49.97;;;14.40;69.40;;;;;;4982662;28;89087;-54
2023/04/08 07:49:47;;;;;;;70.93;49.95;;;14.40;69.30;;;;;;4977478;28;88805;-53
2023/04/08 07:52:12;;;;;;;69.70;50.05;;;14.40;69.50;;;;;;4980410;28;89841;-54
2023/04/08 07:54:38;;;;;;;68.50;50.10;;;14.40;69.70;;;;;;4980956;28;89484;-53
2023/04/08 07:57:04;;;;;;;69.22;50.15;;;14.40;69.50;;;;;;4987845;28;89620;-54
2023/04/08 07:59:31;;;;;;;70.65;50.38;;;14.40;69.60;;;;;;4974706;28;89734;-54
2023/04/08 08:01:56;;;;;;;69.05;50.03;;;14.40;69.80;;;;;;4984298;28;89540;-55
2023/04/08 08:04:24;;;;;;;75.38;50.25;;;14.40;69.80;;;;;;4979910;28;89034;-52
2023/04/08 08:06:50;;;;;;;69.35;50.40;;;14.40;69.70;;;;;;4973597;28;90793;-51
2023/04/08 08:09:16;;;;;;;71.93;50.17;;;14.40;69.20;;;;;;4983553;28;89293;-55
2023/04/08 08:11:41;;;;;;;70.50;50.35;;;14.50;69.60;;;;;;4969327;28;89386;-52
2023/04/08 08:14:07;;;;;;;68.95;49.78;;;14.40;69.10;;;;;;4977445;28;89651;-55
2023/04/08 08:16:33;;;;;;;71.65;50.72;;;14.50;69.40;;;;;;4960587;28;89025;-52
2023/04/08 08:18:58;;;;;;;70.43;50.28;;;14.40;69.20;;;;;;4982077;28;89377;-55
2023/04/08 08:21:25;;;;;;;70.00;50.20;;;14.50;69.70;;;;;;4979576;28;90026;-52
2023/04/08 08:23:54;;;;;;;70.65;50.47;;;14.50;69.70;;;;;;4983100;28;88774;-54
2023/04/08 08:26:20;;;;;;;72.85;50.45;;;14.50;70.00;;;;;;4977907;28;89490;-52
2023/04/08 08:28:45;;;;;;;69.35;50.15;;;14.60;69.30;;;;;;4974752;28;89751;-50
2023/04/08 08:31:11;;;;;;;69.78;50.08;;;14.50;69.20;;;;;;4972600;28;91512;-51
2023/04/08 08:33:37;;;;;;;70.55;50.28;;;14.60;69.20;;;;;;4980292;28;90328;-55
2023/04/08 08:36:06;;;;;;;71.93;50.40;;;14.50;68.70;;;;;;4983980;28;89045;-52
2023/04/08 08:38:32;;;;;;;70.38;50.00;;;14.50;68.70;;;;;;4979054;28;89124;-54
2023/04/08 08:40:59;;;;;;;68.82;49.97;;;14.60;69.10;;;;;;4967215;28;90432;-50
2023/04/08 08:43:26;;;;;;;72.50;50.40;;;14.60;68.90;;;;;;4975754;28;89420;-56
2023/04/08 08:45:52;;;;;;;69.70;50.13;;;14.60;68.40;;;;;;4976756;28;90846;-55
2023/04/08 08:48:18;;;;;;;69.78;50.28;;;14.60;68.80;;;;;;4980206;28;88456;-55
2023/04/08 08:50:44;;;;;;;70.97;50.55;;;14.60;68.60;;;;;;4975727;28;89141;-56
2023/04/08 08:53:10;;;;;;;69.28;50.05;;;14.60;68.40;;;;;;4976552;28;90753;-54
2023/04/08 08:55:38;;;;;;;73.90;50.78;;;14.70;68.70;;;;;;4972957;28;90349;-52
2023/04/08 08:58:04;;;;;;;70.65;50.50;;;14.70;68.30;;;;;;4977634;28;89900;-54
2023/04/08 09:00:41;;;;;;;75.30;50.55;;;14.70;68.30;;;;;;4974927;28;89319;-58
2023/04/08 09:03:23;;;;;;;70.03;50.00;;;14.70;69.60;;;;;;4976731;28;89116;-59
2023/04/08 09:06:05;;;;;;;72.57;50.13;;;14.80;69.60;;;;;;4972785;28;89869;-55
2023/04/08 09:08:32;;;;;;;72.10;50.35;;;14.90;69.90;;;;;;4977802;28;90075;-57
2023/04/08 09:11:18;;;;;;;77.10;51.15;;;15.10;70.00;;;;;;4978403;28;89111;-60
2023/04/08 09:13:45;;;;;;;77.53;50.50;;;15.10;70.20;;;;;;4980318;28;88793;-60
2023/04/08 09:16:17;;;;;;;72.38;50.95;;;15.10;70.00;;;;;;4978461;28;88782;-58
2023/04/08 09:18:44;;;;;;;74.80;51.00;;;15.10;69.90;;;;;;4977382;28;89908;-57
2023/04/08 09:21:11;;;;;;;76.40;51.05;;;15.00;69.50;;;;;;4976172;28;90372;-59
2023/04/08 09:23:46;;;;;;;74.47;50.95;;;15.00;69.70;;;;;;4976154;28;93957;-61
2023/04/08 09:26:21;;;;;;;72.15;50.78;;;15.00;71.00;;;;;;4980936;28;89327;-58
2023/04/08 09:29:06;;;;;;;72.10;50.65;;;15.00;69.90;;;;;;4963133;28;89246;-61
2023/04/08 09:31:37;;;;;;;74.35;51.00;;;15.00;69.80;;;;;;4975003;28;89294;-55
2023/04/08 09:34:10;;;;;;;73.65;50.65;;;15.00;69.40;;;;;;4975443;28;92387;-56
2023/04/08 09:36:37;;;;;;;72.07;50.60;;;15.00;69.00;;;;;;4981263;28;89491;-60
2023/04/08 09:39:02;;;;;;;70.90;50.72;;;15.00;68.70;;;;;;4983916;28;88602;-57
2023/04/08 09:41:32;;;;;;;72.20;51.10;;;15.00;68.30;;;;;;4982117;28;90353;-59
2023/04/08 09:44:01;;;;;;;72.70;51.33;;;15.00;68.00;;;;;;4976349;28;89584;-60
2023/04/08 09:46:45;;;;;;;72.15;51.30;;;15.00;68.10;;;;;;4981933;28;92589;-61
2023/04/08 09:49:35;;;;;;;74.07;51.35;;;15.00;67.80;;;;;;4977864;28;89208;-60
2023/04/08 09:52:08;;;;;;;71.70;50.83;;;15.00;67.60;;;;;;4983877;28;89654;-60
2023/04/08 09:55:04;;;;;;;72.53;50.80;;;15.00;67.60;;;;;;4980639;28;93914;-58
2023/04/08 09:57:35;;;;;;;71.95;50.67;;;15.00;67.30;;;;;;4986093;28;89020;-61
2023/04/08 10:00:21;;;;;;;;;;;15.00;67.30;;;;;;4981344;28;89531;-57
2023/04/08 10:03:01;;;;;;;71.93;51.05;;;15.00;67.00;;;;;;4982661;28;89305;-57
2023/04/08 10:05:29;;;;;;;72.30;51.13;;;15.10;67.30;;;;;;4977761;28;88913;-60
2023/04/08 10:07:56;;;;;;;75.10;51.30;;;15.10;67.00;;;;;;4966806;28;89919;-61
2023/04/08 10:10:23;;;;;;;73.70;51.30;;;15.00;66.80;;;;;;4972286;28;90281;-61
2023/04/08 10:12:49;;;;;;;74.68;50.85;;;15.10;66.60;;;;;;4983001;28;90259;-61
2023/04/08 10:15:28;;;;;;;73.40;51.00;;;15.10;67.10;;;;;;4977509;28;90190;-60
2023/04/08 10:18:17;;;;;;;73.03;50.90;;;15.10;67.10;;;;;;4969688;28;89009;-59
2023/04/08 10:20:45;;;;;;;74.82;51.75;;;15.20;67.40;;;;;;4966950;28;89089;-56
2023/04/08 10:23:16;;;;;;;76.75;51.65;;;15.20;67.90;;;;;;4973494;28;90963;-55
2023/04/08 10:25:46;;;;;;;78.40;52.37;;;15.20;68.40;;;;;;4958105;28;89284;-59
2023/04/08 10:28:11;;;;;;;75.78;51.78;;;15.20;69.90;;;;;;4971756;28;90591;-55
2023/04/08 10:30:38;;;;;;;79.25;52.15;;;15.20;69.90;;;;;;4977592;28;92692;-56
2023/04/08 10:33:31;;;;;;;77.45;51.35;;;15.30;70.20;;;;;;4976733;28;90611;-60
2023/04/08 10:36:06;;;;;;;77.53;52.05;;;15.30;70.30;;;;;;4969450;28;89477;-60
2023/04/08 10:38:32;;;;;;;75.18;51.60;;;15.30;70.80;;;;;;4981797;28;90552;-58
2023/04/08 10:40:57;;;;;;;76.78;52.08;;;15.30;70.90;;;;;;4980156;28;90139;-58
2023/04/08 10:43:23;;;;;;;79.60;51.65;;;15.30;70.70;;;;;;4977761;28;88998;-60
2023/04/08 10:45:51;;;;;;;76.32;51.92;;;15.30;71.00;;;;;;4983432;28;89123;-57
2023/04/08 10:48:19;;;;;;;79.70;52.53;;;15.30;71.10;;;;;;4983481;28;89064;-58
2023/04/08 10:50:59;;;;;;;78.43;52.45;;;15.30;71.20;;;;;;4981821;28;90523;-59
2023/04/08 10:53:33;;;;;;;82.93;52.35;;;15.40;71.20;;;;;;4979754;28;89375;-59
2023/04/08 10:56:08;;;;;;;79.75;52.60;;;15.40;71.40;;;;;;4983293;28;88829;-60
2023/04/08 10:58:35;;;;;;;82.72;52.70;;;15.40;71.30;;;;;;4982934;28;89160;-60
2023/04/08 11:01:07;;;;;;;75.90;52.03;;;15.40;71.10;;;;;;4979756;28;89112;-55
2023/04/08 11:03:34;;;;;;;75.13;51.67;;;15.40;71.20;;;;;;4961168;28;90373;-60
2023/04/08 11:06:01;;;;;;;77.68;52.22;;;15.40;71.20;;;;;;4981371;28;89986;-57
2023/04/08 11:08:31;;;;;;;77.57;52.30;;;15.40;71.20;;;;;;4983146;28;89217;-59
2023/04/08 11:10:57;;;;;;;78.65;52.25;;;15.40;71.20;;;;;;4977083;28;89114;-57
2023/04/08 11:13:23;;;;;;;76.95;52.03;;;15.40;71.90;;;;;;4977673;28;89229;-60
2023/04/08 11:15:50;;;;;;;80.78;52.40;;;15.40;72.50;;;;;;4976265;28;90602;-51
2023/04/08 11:18:16;;;;;;;78.50;52.58;;;15.40;72.50;;;;;;4969400;28;89570;-59
2023/04/08 11:20:43;;;;;;;79.72;52.33;;;15.50;72.60;;;;;;4973076;28;89995;-59
2023/04/08 11:23:13;;;;;;;82.32;52.08;;;15.50;73.40;;;;;;4959223;28;90951;-58
2023/04/08 11:25:40;;;;;;;79.65;52.83;;;15.60;73.50;;;;;;4962981;28;93370;-58
2023/04/08 11:28:07;;;;;;;83.60;53.45;;;15.70;74.00;;;;;;4964259;28;95864;-54
2023/04/08 11:30:33;;;;;;;89.47;53.95;;;15.70;74.00;;;;;;4965386;28;90233;-59
2023/04/08 11:32:59;;;;;;;81.50;53.72;;;15.70;74.40;;;;;;4971485;28;89459;-55
2023/04/08 11:35:31;;;;;;;89.40;54.03;;;15.80;74.20;;;;;;4971406;28;90099;-58
2023/04/08 11:37:57;;;;;;;81.95;53.97;;;15.80;74.50;;;;;;4976993;28;90141;-56
2023/04/08 11:40:23;;;;;;;81.50;53.63;;;15.80;74.00;;;;;;4973996;28;89472;-60
2023/04/08 11:42:50;;;;;;;83.35;54.08;;;15.90;73.70;;;;;;4984506;28;89104;-59
2023/04/08 11:45:18;;;;;;;81.50;54.25;;;15.90;73.40;;;;;;4970195;28;88867;-60
2023/04/08 11:47:45;;;;;;;83.97;54.35;;;16.00;73.70;;;;;;4972769;28;89400;-59
2023/04/08 11:50:11;;;;;;;94.05;54.53;;;16.10;74.80;;;;;;4976909;28;91556;-58
2023/04/08 11:52:47;;;;;;;86.90;55.08;;;16.00;75.30;;;;;;4976740;28;90768;-59
2023/04/08 11:55:27;;;;;;;83.97;55.22;;;16.10;76.50;;;;;;4969589;28;90405;-53
2023/04/08 11:57:55;;;;;;;83.93;55.20;;;16.10;76.80;;;;;;4974567;28;89090;-58
2023/04/08 12:00:22;;;;;;;80.00;54.17;;;16.10;76.50;;;;;;4976890;28;89163;-57
2023/04/08 12:02:48;;;;;;;80.85;54.45;;;16.10;76.50;;;;;;4972051;28;91230;-59
2023/04/08 12:05:14;;;;;;;81.80;54.67;;;16.00;76.00;;;;;;4970135;28;91763;-59
2023/04/08 12:07:41;;;;;;;79.18;54.35;;;16.10;75.90;;;;;;4968184;28;90562;-54
2023/04/08 12:10:07;;;;;;;83.43;55.03;;;16.00;75.90;;;;;;4966495;28;89416;-53
2023/04/08 12:12:33;;;;;;;80.28;53.80;;;16.10;75.70;;;;;;4974619;28;89943;-59
2023/04/08 12:14:58;;;;;;;81.25;54.28;;;16.10;75.60;;;;;;4975781;28;90165;-58
2023/04/08 12:17:24;;;;;;;77.63;53.88;;;16.10;75.40;;;;;;4972223;28;90438;-54
2023/04/08 12:19:50;;;;;;;80.95;53.58;;;16.10;75.10;;;;;;4973018;28;90617;-58
2023/04/08 12:22:16;;;;;;;79.60;54.15;;;16.10;74.90;;;;;;4975401;28;89822;-56
2023/04/08 12:24:41;;;;;;;82.68;54.22;;;16.00;74.30;;;;;;4979441;28;92078;-58
2023/04/08 12:27:07;;;;;;;78.70;53.92;;;16.00;74.30;;;;;;4977270;28;88982;-60
2023/04/08 12:29:33;;;;;;;78.00;53.88;;;16.00;74.50;;;;;;4978270;28;89759;-60
2023/04/08 12:31:59;;;;;;;79.43;54.33;;;16.00;74.10;;;;;;4973866;28;89532;-61